sensor_id;sensor_type;location;lat;lon;timestamp;pressure;altitude;pressure_sealevel;temperature;humidity
58991;BME280;44781;53.444;14.476;2023-03-26T00:00:42;99879.86;;;9.31;76.66
58991;BME280;44781;53.444;14.476;2023-03-26T00:07:22;99889.50;;;9.26;76.43
58991;BME280;44781;53.444;14.476;2023-03-26T00:10:24;99883.94;;;9.27;76.54
58991;BME280;44781;53.444;14.476;2023-03-26T00:13:00;99888.11;;;9.27;76.76
58991;BME280;44781;53.444;14.476;2023-03-26T00:15:38;99891.39;;;9.26;76.62
58991;BME280;44781;53.444;14.476;2023-03-26T00:18:18;99891.98;;;9.23;76.50
58991;BME280;44781;53.444;14.476;2023-03-26T00:21:11;99894.11;;;9.19;76.49
58991;BME280;44781;53.444;14.476;2023-03-26T00:23:42;99897.13;;;9.15;76.33
58991;BME280;44781;53.444;14.476;2023-03-26T00:26:09;99898.52;;;9.13;76.47
58991;BME280;44781;53.444;14.476;2023-03-26T00:28:44;99898.02;;;9.13;76.65
58991;BME280;44781;53.444;14.476;2023-03-26T00:31:13;99897.20;;;9.12;76.70
58991;BME280;44781;53.444;14.476;2023-03-26T00:33:49;99899.13;;;9.10;76.71
58991;BME280;44781;53.444;14.476;2023-03-26T00:36:41;99897.23;;;9.05;76.80
58991;BME280;44781;53.444;14.476;2023-03-26T00:39:09;99896.91;;;9.00;77.02
58991;BME280;44781;53.444;14.476;2023-03-26T00:41:37;99896.23;;;8.96;77.06
58991;BME280;44781;53.444;14.476;2023-03-26T00:44:09;99895.40;;;8.93;77.26
58991;BME280;44781;53.444;14.476;2023-03-26T00:46:37;99890.60;;;8.91;77.37
58991;BME280;44781;53.444;14.476;2023-03-26T00:49:04;99895.09;;;8.92;77.54
58991;BME280;44781;53.444;14.476;2023-03-26T00:51:31;99892.70;;;8.94;77.51
58991;BME280;44781;53.444;14.476;2023-03-26T00:54:00;99893.20;;;8.94;77.35
58991;BME280;44781;53.444;14.476;2023-03-26T00:56:33;99897.56;;;8.92;77.31
58991;BME280;44781;53.444;14.476;2023-03-26T00:59:02;99894.38;;;8.88;77.30
58991;BME280;44781;53.444;14.476;2023-03-26T01:01:48;99891.73;;;8.84;77.37
58991;BME280;44781;53.444;14.476;2023-03-26T01:04:24;99895.11;;;8.81;77.42
58991;BME280;44781;53.444;14.476;2023-03-26T01:07:24;99895.64;;;8.80;77.55
58991;BME280;44781;53.444;14.476;2023-03-26T01:10:05;99889.52;;;8.77;77.65
58991;BME280;44781;53.444;14.476;2023-03-26T01:12:34;99891.30;;;8.76;77.84
58991;BME280;44781;53.444;14.476;2023-03-26T01:15:05;99897.25;;;8.75;77.90
58991;BME280;44781;53.444;14.476;2023-03-26T01:17:51;99902.14;;;8.73;77.91
58991;BME280;44781;53.444;14.476;2023-03-26T01:20:26;99906.83;;;8.69;78.00
58991;BME280;44781;53.444;14.476;2023-03-26T01:23:02;99905.87;;;8.66;78.07
58991;BME280;44781;53.444;14.476;2023-03-26T01:25:37;99905.18;;;8.64;78.13
58991;BME280;44781;53.444;14.476;2023-03-26T01:28:13;99906.30;;;8.63;78.05
58991;BME280;44781;53.444;14.476;2023-03-26T01:30:49;99915.52;;;8.64;78.28
58991;BME280;44781;53.444;14.476;2023-03-26T01:33:36;99918.40;;;8.66;78.16
58991;BME280;44781;53.444;14.476;2023-03-26T01:39:23;99918.26;;;8.65;78.17
58991;BME280;44781;53.444;14.476;2023-03-26T01:42:06;99923.42;;;8.62;78.01
58991;BME280;44781;53.444;14.476;2023-03-26T01:44:58;99921.97;;;8.59;78.06
58991;BME280;44781;53.444;14.476;2023-03-26T01:47:35;99923.64;;;8.53;78.15
58991;BME280;44781;53.444;14.476;2023-03-26T01:50:07;99925.13;;;8.50;78.26
58991;BME280;44781;53.444;14.476;2023-03-26T01:52:35;99923.92;;;8.49;78.38
58991;BME280;44781;53.444;14.476;2023-03-26T01:55:03;99920.35;;;8.48;78.39
58991;BME280;44781;53.444;14.476;2023-03-26T01:57:51;99924.16;;;8.49;78.60
58991;BME280;44781;53.444;14.476;2023-03-26T02:00:48;99929.19;;;8.50;78.75
58991;BME280;44781;53.444;14.476;2023-03-26T02:03:40;99926.41;;;8.47;78.83
58991;BME280;44781;53.444;14.476;2023-03-26T02:06:25;99927.02;;;8.44;78.92
58991;BME280;44781;53.444;14.476;2023-03-26T02:09:29;99930.13;;;8.40;79.00
58991;BME280;44781;53.444;14.476;2023-03-26T02:12:07;99931.63;;;8.39;79.16
58991;BME280;44781;53.444;14.476;2023-03-26T02:14:51;99917.31;;;8.28;79.05
58991;BME280;44781;53.444;14.476;2023-03-26T02:17:33;99930.15;;;8.33;79.21
58991;BME280;44781;53.444;14.476;2023-03-26T02:20:10;99932.45;;;8.33;79.51
58991;BME280;44781;53.444;14.476;2023-03-26T02:22:40;99930.43;;;8.32;79.33
58991;BME280;44781;53.444;14.476;2023-03-26T02:25:15;99934.98;;;8.27;79.45
58991;BME280;44781;53.444;14.476;2023-03-26T02:27:46;99934.00;;;8.22;79.62
58991;BME280;44781;53.444;14.476;2023-03-26T02:30:19;99933.52;;;8.19;79.65
58991;BME280;44781;53.444;14.476;2023-03-26T02:32:48;99937.99;;;8.21;79.73
58991;BME280;44781;53.444;14.476;2023-03-26T02:35:20;99942.08;;;8.22;79.91
58991;BME280;44781;53.444;14.476;2023-03-26T02:37:49;99937.73;;;8.24;79.93
58991;BME280;44781;53.444;14.476;2023-03-26T02:40:19;99942.11;;;8.24;79.98
58991;BME280;44781;53.444;14.476;2023-03-26T02:42:55;99943.40;;;8.26;79.84
58991;BME280;44781;53.444;14.476;2023-03-26T02:45:23;99943.38;;;8.23;79.68
58991;BME280;44781;53.444;14.476;2023-03-26T02:48:03;99951.17;;;8.19;79.66
58991;BME280;44781;53.444;14.476;2023-03-26T02:50:44;99952.67;;;8.15;79.62
58991;BME280;44781;53.444;14.476;2023-03-26T02:53:28;99956.65;;;8.14;79.72
58991;BME280;44781;53.444;14.476;2023-03-26T02:55:59;99957.44;;;8.15;79.91
58991;BME280;44781;53.444;14.476;2023-03-26T02:58:29;99959.77;;;8.17;80.05
58991;BME280;44781;53.444;14.476;2023-03-26T03:00:58;99958.67;;;8.15;80.22
58991;BME280;44781;53.444;14.476;2023-03-26T03:03:36;99962.44;;;8.14;80.13
58991;BME280;44781;53.444;14.476;2023-03-26T03:06:18;99965.21;;;8.12;80.27
58991;BME280;44781;53.444;14.476;2023-03-26T03:08:51;99965.19;;;8.08;80.35
58991;BME280;44781;53.444;14.476;2023-03-26T03:11:46;99965.56;;;8.03;80.35
58991;BME280;44781;53.444;14.476;2023-03-26T03:14:13;99965.32;;;8.02;80.53
58991;BME280;44781;53.444;14.476;2023-03-26T03:16:41;99969.58;;;8.01;80.71
58991;BME280;44781;53.444;14.476;2023-03-26T03:19:10;99973.38;;;8.00;80.56
58991;BME280;44781;53.444;14.476;2023-03-26T03:21:40;99973.74;;;8.00;80.61
58991;BME280;44781;53.444;14.476;2023-03-26T03:24:09;99976.66;;;8.01;80.75
58991;BME280;44781;53.444;14.476;2023-03-26T03:26:41;99978.44;;;8.01;80.77
58991;BME280;44781;53.444;14.476;2023-03-26T03:29:35;99984.91;;;7.99;80.82
58991;BME280;44781;53.444;14.476;2023-03-26T03:32:22;99985.23;;;7.97;80.67
58991;BME280;44781;53.444;14.476;2023-03-26T03:34:50;99994.16;;;7.98;80.94
58991;BME280;44781;53.444;14.476;2023-03-26T03:37:18;99994.38;;;7.97;80.82
58991;BME280;44781;53.444;14.476;2023-03-26T03:39:51;99995.33;;;7.96;80.85
58991;BME280;44781;53.444;14.476;2023-03-26T03:42:24;99998.48;;;7.96;81.03
58991;BME280;44781;53.444;14.476;2023-03-26T03:45:20;100000.20;;;7.95;81.04
58991;BME280;44781;53.444;14.476;2023-03-26T03:48:05;100011.55;;;7.91;81.07
58991;BME280;44781;53.444;14.476;2023-03-26T03:50:40;100011.06;;;7.88;81.21
58991;BME280;44781;53.444;14.476;2023-03-26T03:53:22;100018.92;;;7.84;81.03
58991;BME280;44781;53.444;14.476;2023-03-26T03:55:53;100016.77;;;7.80;81.10
58991;BME280;44781;53.444;14.476;2023-03-26T03:58:25;100016.70;;;7.81;81.30
58991;BME280;44781;53.444;14.476;2023-03-26T04:00:54;100021.10;;;7.83;81.35
58991;BME280;44781;53.444;14.476;2023-03-26T04:03:49;100025.45;;;7.84;81.39
58991;BME280;44781;53.444;14.476;2023-03-26T04:06:17;100026.19;;;7.85;81.39
58991;BME280;44781;53.444;14.476;2023-03-26T04:08:46;100023.23;;;7.85;81.26
58991;BME280;44781;53.444;14.476;2023-03-26T04:11:13;100020.09;;;7.85;81.15
58991;BME280;44781;53.444;14.476;2023-03-26T04:14:10;100023.40;;;7.83;80.88
58991;BME280;44781;53.444;14.476;2023-03-26T04:17:01;100027.75;;;7.79;80.64
58991;BME280;44781;53.444;14.476;2023-03-26T04:19:33;100034.30;;;7.76;80.58
58991;BME280;44781;53.444;14.476;2023-03-26T04:22:00;100034.59;;;7.74;80.49
58991;BME280;44781;53.444;14.476;2023-03-26T04:24:34;100031.10;;;7.74;80.40
58991;BME280;44781;53.444;14.476;2023-03-26T04:27:08;100031.80;;;7.74;80.43
58991;BME280;44781;53.444;14.476;2023-03-26T04:29:43;100035.83;;;7.74;80.39
58991;BME280;44781;53.444;14.476;2023-03-26T04:32:21;100033.29;;;7.73;80.29
58991;BME280;44781;53.444;14.476;2023-03-26T04:34:53;100030.27;;;7.73;80.32
58991;BME280;44781;53.444;14.476;2023-03-26T04:37:26;100029.86;;;7.72;80.34
58991;BME280;44781;53.444;14.476;2023-03-26T04:40:15;100021.83;;;7.64;80.40
58991;BME280;44781;53.444;14.476;2023-03-26T04:43:13;100032.15;;;7.69;80.16
58991;BME280;44781;53.444;14.476;2023-03-26T04:46:03;100037.85;;;7.71;80.15
58991;BME280;44781;53.444;14.476;2023-03-26T04:48:35;100037.79;;;7.69;80.14
58991;BME280;44781;53.444;14.476;2023-03-26T04:51:07;100039.24;;;7.71;80.06
58991;BME280;44781;53.444;14.476;2023-03-26T04:53:52;100037.04;;;7.72;80.04
58991;BME280;44781;53.444;14.476;2023-03-26T04:59:30;100041.99;;;7.69;79.74
58991;BME280;44781;53.444;14.476;2023-03-26T05:02:03;100042.55;;;7.67;79.72
58991;BME280;44781;53.444;14.476;2023-03-26T05:04:35;100051.58;;;7.64;79.71
58991;BME280;44781;53.444;14.476;2023-03-26T05:07:06;100050.80;;;7.62;79.65
58991;BME280;44781;53.444;14.476;2023-03-26T05:09:45;100053.30;;;7.64;79.67
58991;BME280;44781;53.444;14.476;2023-03-26T05:12:15;100051.38;;;7.66;79.62
58991;BME280;44781;53.444;14.476;2023-03-26T05:14:54;100053.48;;;7.66;79.69
58991;BME280;44781;53.444;14.476;2023-03-26T05:17:43;100048.13;;;7.67;79.98
58991;BME280;44781;53.444;14.476;2023-03-26T05:20:26;100048.30;;;7.70;79.89
58991;BME280;44781;53.444;14.476;2023-03-26T05:22:53;100047.20;;;7.70;79.83
58991;BME280;44781;53.444;14.476;2023-03-26T05:25:27;100043.76;;;7.72;79.82
58991;BME280;44781;53.444;14.476;2023-03-26T05:27:55;100042.54;;;7.74;79.60
58991;BME280;44781;53.444;14.476;2023-03-26T05:30:26;100042.73;;;7.74;79.49
58991;BME280;44781;53.444;14.476;2023-03-26T05:32:56;100045.71;;;7.76;79.49
58991;BME280;44781;53.444;14.476;2023-03-26T05:35:29;100047.66;;;7.79;79.74
58991;BME280;44781;53.444;14.476;2023-03-26T05:37:57;100047.52;;;7.80;79.73
58991;BME280;44781;53.444;14.476;2023-03-26T05:40:24;100047.80;;;7.81;79.71
58991;BME280;44781;53.444;14.476;2023-03-26T05:42:58;100047.86;;;7.83;79.74
58991;BME280;44781;53.444;14.476;2023-03-26T05:45:46;100049.61;;;7.85;79.78
58991;BME280;44781;53.444;14.476;2023-03-26T05:48:40;100051.26;;;7.89;79.77
58991;BME280;44781;53.444;14.476;2023-03-26T05:51:07;100047.77;;;7.91;79.79
58991;BME280;44781;53.444;14.476;2023-03-26T05:53:36;100043.83;;;7.92;79.85
58991;BME280;44781;53.444;14.476;2023-03-26T05:56:22;100045.24;;;7.99;79.83
58991;BME280;44781;53.444;14.476;2023-03-26T05:59:28;100045.17;;;8.02;79.76
58991;BME280;44781;53.444;14.476;2023-03-26T06:02:14;100045.23;;;8.01;79.64
58991;BME280;44781;53.444;14.476;2023-03-26T06:05:00;100046.41;;;8.00;79.74
58991;BME280;44781;53.444;14.476;2023-03-26T06:07:49;100049.14;;;7.98;79.72
58991;BME280;44781;53.444;14.476;2023-03-26T06:10:19;100050.60;;;7.98;79.62
58991;BME280;44781;53.444;14.476;2023-03-26T06:12:46;100050.28;;;8.00;79.59
58991;BME280;44781;53.444;14.476;2023-03-26T06:15:18;100050.40;;;8.03;79.59
58991;BME280;44781;53.444;14.476;2023-03-26T06:17:58;100054.19;;;8.06;79.65
58991;BME280;44781;53.444;14.476;2023-03-26T06:20:58;100061.42;;;8.10;79.76
58991;BME280;44781;53.444;14.476;2023-03-26T06:23:36;100062.23;;;8.09;79.41
58991;BME280;44781;53.444;14.476;2023-03-26T06:26:06;100062.82;;;8.06;79.12
58991;BME280;44781;53.444;14.476;2023-03-26T06:28:42;100061.80;;;8.05;79.10
58991;BME280;44781;53.444;14.476;2023-03-26T06:31:28;100060.94;;;8.10;79.18
58991;BME280;44781;53.444;14.476;2023-03-26T06:34:14;100060.49;;;8.16;79.27
58991;BME280;44781;53.444;14.476;2023-03-26T06:36:42;100065.52;;;8.21;79.26
58991;BME280;44781;53.444;14.476;2023-03-26T06:40:10;100066.75;;;8.25;79.12
58991;BME280;44781;53.444;14.476;2023-03-26T06:43:13;100068.39;;;8.27;78.92
58991;BME280;44781;53.444;14.476;2023-03-26T06:50:12;100074.60;;;8.27;78.73
58991;BME280;44781;53.444;14.476;2023-03-26T06:53:12;100082.83;;;8.27;78.50
58991;BME280;44781;53.444;14.476;2023-03-26T06:55:58;100083.91;;;8.27;78.43
58991;BME280;44781;53.444;14.476;2023-03-26T06:58:47;100086.03;;;8.26;78.20
58991;BME280;44781;53.444;14.476;2023-03-26T07:01:33;100085.20;;;8.26;78.19
58991;BME280;44781;53.444;14.476;2023-03-26T07:04:21;100080.41;;;8.24;78.22
58991;BME280;44781;53.444;14.476;2023-03-26T07:07:15;100083.38;;;8.24;78.32
58991;BME280;44781;53.444;14.476;2023-03-26T07:10:03;100089.67;;;8.25;78.06
58991;BME280;44781;53.444;14.476;2023-03-26T07:12:45;100096.27;;;8.24;78.03
58991;BME280;44781;53.444;14.476;2023-03-26T07:15:39;100099.11;;;8.26;78.01
58991;BME280;44781;53.444;14.476;2023-03-26T07:18:33;100101.02;;;8.28;78.02
58991;BME280;44781;53.444;14.476;2023-03-26T07:21:07;100098.30;;;8.27;78.08
58991;BME280;44781;53.444;14.476;2023-03-26T07:23:39;100097.80;;;8.29;78.09
58991;BME280;44781;53.444;14.476;2023-03-26T07:32:57;100100.95;;;8.37;78.45
58991;BME280;44781;53.444;14.476;2023-03-26T07:36:31;100102.17;;;8.41;78.11
58991;BME280;44781;53.444;14.476;2023-03-26T07:46:14;100103.70;;;8.67;77.87
58991;BME280;44781;53.444;14.476;2023-03-26T07:49:03;100099.84;;;8.72;77.41
58991;BME280;44781;53.444;14.476;2023-03-26T07:51:36;100103.20;;;8.74;76.92
58991;BME280;44781;53.444;14.476;2023-03-26T07:54:12;100103.05;;;8.73;76.40
58991;BME280;44781;53.444;14.476;2023-03-26T08:04:35;100101.23;;;8.76;75.54
58991;BME280;44781;53.444;14.476;2023-03-26T08:07:55;100097.91;;;8.80;75.70
58991;BME280;44781;53.444;14.476;2023-03-26T08:10:42;100100.40;;;8.87;75.49
58991;BME280;44781;53.444;14.476;2023-03-26T08:22:26;100096.66;;;9.00;74.15
58991;BME280;44781;53.444;14.476;2023-03-26T08:30:43;100100.85;;;8.97;73.01
58991;BME280;44781;53.444;14.476;2023-03-26T08:33:29;100100.36;;;8.96;72.95
58991;BME280;44781;53.444;14.476;2023-03-26T08:35:56;100106.75;;;9.00;73.03
58991;BME280;44781;53.444;14.476;2023-03-26T08:38:24;100122.39;;;9.03;72.89
58991;BME280;44781;53.444;14.476;2023-03-26T10:22:05;100137.58;;;9.40;65.08
58991;BME280;44781;53.444;14.476;2023-03-26T10:25:04;100131.14;;;9.34;65.40
58991;BME280;44781;53.444;14.476;2023-03-26T10:31:21;100132.13;;;9.24;64.96
58991;BME280;44781;53.444;14.476;2023-03-26T10:36:33;100127.10;;;9.21;64.26
58991;BME280;44781;53.444;14.476;2023-03-26T10:40:15;100127.11;;;9.21;64.04
58991;BME280;44781;53.444;14.476;2023-03-26T10:43:13;100125.89;;;9.21;63.80
58991;BME280;44781;53.444;14.476;2023-03-26T10:55:47;100128.89;;;9.21;63.27
58991;BME280;44781;53.444;14.476;2023-03-26T11:22:20;100147.34;;;9.72;61.36
58991;BME280;44781;53.444;14.476;2023-03-26T11:36:44;100161.94;;;9.57;59.27
58991;BME280;44781;53.444;14.476;2023-03-26T11:39:20;100156.82;;;9.55;58.85
58991;BME280;44781;53.444;14.476;2023-03-26T11:42:08;100156.03;;;9.51;58.10
58991;BME280;44781;53.444;14.476;2023-03-26T11:45:13;100162.03;;;9.47;58.11
58991;BME280;44781;53.444;14.476;2023-03-26T11:51:13;100159.80;;;9.41;57.76
58991;BME280;44781;53.444;14.476;2023-03-26T11:53:47;100152.05;;;9.37;57.68
58991;BME280;44781;53.444;14.476;2023-03-26T11:59:18;100158.33;;;9.44;57.02
58991;BME280;44781;53.444;14.476;2023-03-26T12:04:19;100151.05;;;9.50;56.75
58991;BME280;44781;53.444;14.476;2023-03-26T12:07:16;100144.73;;;9.54;56.73
58991;BME280;44781;53.444;14.476;2023-03-26T12:10:22;100148.09;;;9.60;57.05
58991;BME280;44781;53.444;14.476;2023-03-26T12:15:45;100144.49;;;9.78;57.07
58991;BME280;44781;53.444;14.476;2023-03-26T12:19:19;100147.64;;;9.85;56.81
58991;BME280;44781;53.444;14.476;2023-03-26T12:25:32;100150.45;;;9.87;55.03
58991;BME280;44781;53.444;14.476;2023-03-26T12:28:20;100147.64;;;9.85;54.99
58991;BME280;44781;53.444;14.476;2023-03-26T12:31:04;100150.39;;;9.86;55.37
58991;BME280;44781;53.444;14.476;2023-03-26T12:34:28;100147.10;;;9.90;55.70
58991;BME280;44781;53.444;14.476;2023-03-26T12:37:36;100144.13;;;9.93;55.58
58991;BME280;44781;53.444;14.476;2023-03-26T12:40:35;100139.05;;;9.97;55.47
58991;BME280;44781;53.444;14.476;2023-03-26T12:43:53;100141.13;;;10.02;55.08
58991;BME280;44781;53.444;14.476;2023-03-26T12:46:35;100141.27;;;10.04;55.09
58991;BME280;44781;53.444;14.476;2023-03-26T12:49:16;100142.21;;;10.06;55.08
58991;BME280;44781;53.444;14.476;2023-03-26T12:51:53;100141.33;;;10.08;55.26
58991;BME280;44781;53.444;14.476;2023-03-26T12:58:39;100146.83;;;10.05;55.07
58991;BME280;44781;53.444;14.476;2023-03-26T13:15:10;100137.10;;;9.87;56.89
58991;BME280;44781;53.444;14.476;2023-03-26T13:26:30;100123.08;;;10.24;55.96
58991;BME280;44781;53.444;14.476;2023-03-26T13:32:00;100120.45;;;10.57;55.07
58991;BME280;44781;53.444;14.476;2023-03-26T13:35:30;100113.88;;;10.68;54.29
58991;BME280;44781;53.444;14.476;2023-03-26T13:40:21;100115.24;;;10.97;54.30
58991;BME280;44781;53.444;14.476;2023-03-26T13:47:27;100116.10;;;11.37;53.45
58991;BME280;44781;53.444;14.476;2023-03-26T13:54:19;100102.61;;;11.73;51.98
58991;BME280;44781;53.444;14.476;2023-03-26T14:01:45;100100.48;;;12.00;50.97
58991;BME280;44781;53.444;14.476;2023-03-26T14:08:31;100093.05;;;12.12;49.81
58991;BME280;44781;53.444;14.476;2023-03-26T14:11:11;100092.35;;;12.11;49.51
58991;BME280;44781;53.444;14.476;2023-03-26T14:13:55;100094.90;;;12.14;49.25
58991;BME280;44781;53.444;14.476;2023-03-26T14:16:35;100100.11;;;12.19;49.36
58991;BME280;44781;53.444;14.476;2023-03-26T14:19:35;100096.30;;;12.24;49.07
58991;BME280;44781;53.444;14.476;2023-03-26T14:31:17;100099.30;;;12.66;49.02
58991;BME280;44781;53.444;14.476;2023-03-26T14:34:11;100095.17;;;12.74;48.96
58991;BME280;44781;53.444;14.476;2023-03-26T14:42:40;100095.43;;;12.91;47.48
58991;BME280;44781;53.444;14.476;2023-03-26T14:45:40;100097.38;;;12.88;47.18
58991;BME280;44781;53.444;14.476;2023-03-26T14:53:59;100103.09;;;12.72;46.51
58991;BME280;44781;53.444;14.476;2023-03-26T14:56:51;100106.60;;;12.58;46.85
58991;BME280;44781;53.444;14.476;2023-03-26T15:05:08;100103.93;;;12.31;47.76
58991;BME280;44781;53.444;14.476;2023-03-26T15:11:21;100116.00;;;12.23;48.00
58991;BME280;44781;53.444;14.476;2023-03-26T15:14:09;100125.81;;;12.23;47.66
58991;BME280;44781;53.444;14.476;2023-03-26T15:23:38;100141.33;;;11.91;47.82
58991;BME280;44781;53.444;14.476;2023-03-26T15:27:01;100144.00;;;11.81;48.00
58991;BME280;44781;53.444;14.476;2023-03-26T15:41:20;100153.84;;;11.38;48.26
58991;BME280;44781;53.444;14.476;2023-03-26T15:49:18;100165.79;;;11.25;48.47
58991;BME280;44781;53.444;14.476;2023-03-26T16:03:17;100167.09;;;11.14;48.05
58991;BME280;44781;53.444;14.476;2023-03-26T16:09:22;100172.30;;;11.17;47.75
58991;BME280;44781;53.444;14.476;2023-03-26T16:15:13;100168.17;;;11.22;47.45
58991;BME280;44781;53.444;14.476;2023-03-26T16:18:05;100172.09;;;11.29;47.39
58991;BME280;44781;53.444;14.476;2023-03-26T16:20:50;100170.61;;;11.32;47.10
58991;BME280;44781;53.444;14.476;2023-03-26T16:26:14;100174.88;;;11.44;47.17
58991;BME280;44781;53.444;14.476;2023-03-26T16:29:24;100173.00;;;11.47;46.65
58991;BME280;44781;53.444;14.476;2023-03-26T16:32:15;100176.76;;;11.47;46.26
58991;BME280;44781;53.444;14.476;2023-03-26T16:57:26;100192.52;;;11.18;45.50
58991;BME280;44781;53.444;14.476;2023-03-26T17:04:28;100196.80;;;11.08;45.87
58991;BME280;44781;53.444;14.476;2023-03-26T17:07:28;100197.36;;;11.01;45.89
58991;BME280;44781;53.444;14.476;2023-03-26T17:10:39;100202.05;;;10.94;46.04
58991;BME280;44781;53.444;14.476;2023-03-26T17:13:15;100207.63;;;10.85;45.87
58991;BME280;44781;53.444;14.476;2023-03-26T17:16:03;100203.86;;;10.73;46.08
58991;BME280;44781;53.444;14.476;2023-03-26T17:18:41;100209.85;;;10.58;46.17
58991;BME280;44781;53.444;14.476;2023-03-26T17:21:35;100212.39;;;10.45;46.41
58991;BME280;44781;53.444;14.476;2023-03-26T17:30:54;100221.76;;;9.89;46.77
58991;BME280;44781;53.444;14.476;2023-03-26T17:42:29;100241.02;;;9.20;48.32
58991;BME280;44781;53.444;14.476;2023-03-26T17:45:24;100242.35;;;9.07;48.51
